createdAt,value
2018-08-18T00:00:19.015Z,17.65
2018-08-18T00:01:18.979Z,17.65
2018-08-18T00:02:18.877Z,17.65
2018-08-18T00:03:18.781Z,17.73
2018-08-18T00:04:18.707Z,17.70
2018-08-18T00:05:18.628Z,17.65
2018-08-18T00:06:18.569Z,17.63
2018-08-18T00:07:18.481Z,17.58
2018-08-18T00:08:18.383Z,17.63
2018-08-18T00:09:18.330Z,17.58
2018-08-18T00:10:18.226Z,17.60
2018-08-18T00:11:18.153Z,17.55
2018-08-18T00:12:18.062Z,17.47
2018-08-18T00:15:00.365Z,17.49
2018-08-18T00:16:00.264Z,17.53
2018-08-18T00:17:00.195Z,17.47
2018-08-18T00:19:42.344Z,17.43
2018-08-18T00:20:42.270Z,17.40
2018-08-18T00:21:42.180Z,17.39
2018-08-18T00:22:43.137Z,17.46
2018-08-18T00:23:42.029Z,17.53
2018-08-18T00:26:23.840Z,17.46
2018-08-18T00:27:23.770Z,17.43
2018-08-18T00:28:23.710Z,17.53
2018-08-18T00:31:05.839Z,17.38
2018-08-18T00:32:05.772Z,17.45
2018-08-18T00:33:05.705Z,17.46
2018-08-18T00:34:05.616Z,17.39
2018-08-18T00:35:05.527Z,17.32
2018-08-18T00:36:05.443Z,17.28
2018-08-18T00:37:05.360Z,17.27
2018-08-18T00:38:05.303Z,17.17
2018-08-18T00:39:05.221Z,17.20
2018-08-18T00:40:05.136Z,17.14
2018-08-18T00:41:05.056Z,17.12
2018-08-18T00:42:04.974Z,17.10
2018-08-18T00:43:04.911Z,16.95
2018-08-18T00:44:04.814Z,17.07
2018-08-18T00:45:04.730Z,17.00
2018-08-18T00:46:04.663Z,17.02
2018-08-18T00:47:04.582Z,16.99
2018-08-18T00:48:04.529Z,16.88
2018-08-18T00:49:04.429Z,16.92
2018-08-18T00:51:46.349Z,16.87
2018-08-18T00:54:28.366Z,16.81
2018-08-18T00:55:28.272Z,16.82
2018-08-18T00:56:28.197Z,16.87
2018-08-18T00:59:10.368Z,16.65
2018-08-18T01:00:10.298Z,16.63
2018-08-18T01:01:10.187Z,16.51
2018-08-18T01:02:10.112Z,16.47
2018-08-18T01:03:10.039Z,16.42
2018-08-18T01:04:09.980Z,16.48
2018-08-18T01:05:09.890Z,16.50
2018-08-18T01:07:51.848Z,16.51
2018-08-18T01:08:51.815Z,16.51
2018-08-18T01:09:51.695Z,16.65
2018-08-18T01:10:51.681Z,16.54
2018-08-18T01:11:51.564Z,16.51
2018-08-18T01:12:51.518Z,16.50
2018-08-18T01:13:51.503Z,16.45
2018-08-18T01:14:51.380Z,16.44
2018-08-18T01:15:51.263Z,16.47
2018-08-18T01:16:51.142Z,16.44
2018-08-18T01:17:51.064Z,16.44
2018-08-18T01:18:50.993Z,16.34
2018-08-18T01:19:50.930Z,16.41
2018-08-18T01:20:50.830Z,16.34
2018-08-18T01:21:50.729Z,16.33
2018-08-18T01:24:32.895Z,16.22
2018-08-18T01:25:32.782Z,16.18
2018-08-18T01:26:32.721Z,16.17
2018-08-18T01:27:32.629Z,16.08
2018-08-18T01:28:32.538Z,16.13
2018-08-18T01:29:32.496Z,15.98
2018-08-18T01:30:32.378Z,16.10
2018-08-18T01:31:32.305Z,15.99
2018-08-18T01:32:32.218Z,15.84
2018-08-18T01:35:14.391Z,15.85
2018-08-18T01:36:14.287Z,15.84
2018-08-18T01:37:14.202Z,15.80
2018-08-18T01:38:14.127Z,15.77
2018-08-18T01:39:14.038Z,15.77
2018-08-18T01:40:13.966Z,15.80
2018-08-18T01:41:13.909Z,15.81
2018-08-18T01:42:13.805Z,15.78
2018-08-18T01:43:13.726Z,15.80
2018-08-18T01:45:55.890Z,15.86
2018-08-18T01:46:55.789Z,15.85
2018-08-18T01:47:55.716Z,15.77
2018-08-18T01:50:37.934Z,15.80
2018-08-18T01:51:37.784Z,15.84
2018-08-18T01:52:37.707Z,15.81
2018-08-18T01:53:37.650Z,15.77
2018-08-18T01:54:37.557Z,15.84
2018-08-18T01:55:37.486Z,15.76
2018-08-18T01:56:37.388Z,15.78
2018-08-18T01:57:37.332Z,15.74
2018-08-18T01:58:37.233Z,15.70
2018-08-18T01:59:37.153Z,15.70
2018-08-18T02:00:37.060Z,15.71
2018-08-18T02:01:38.010Z,15.67
2018-08-18T02:02:36.905Z,15.77
2018-08-18T02:03:36.839Z,15.73
2018-08-18T02:04:36.741Z,15.76
2018-08-18T02:05:36.682Z,15.78
2018-08-18T02:06:36.586Z,15.81
2018-08-18T02:07:36.547Z,15.95
2018-08-18T02:08:36.433Z,16.11
2018-08-18T02:09:36.351Z,16.10
2018-08-18T02:10:36.261Z,16.08
2018-08-18T02:13:18.388Z,15.99
2018-08-18T02:14:18.290Z,15.96
2018-08-18T02:15:18.223Z,15.91
2018-08-18T02:16:18.135Z,15.84
2018-08-18T02:17:18.048Z,15.80
2018-08-18T02:18:18.017Z,15.84
2018-08-18T02:19:17.903Z,15.73
2018-08-18T02:20:17.815Z,15.77
2018-08-18T02:21:17.744Z,15.78
2018-08-18T02:22:17.654Z,15.81
2018-08-18T02:23:17.576Z,15.78
2018-08-18T02:24:17.520Z,15.86
2018-08-18T02:25:17.415Z,15.73
2018-08-18T02:27:59.393Z,15.68
2018-08-18T02:28:59.317Z,15.73
2018-08-18T02:29:59.229Z,15.74
2018-08-18T02:30:59.150Z,15.78
2018-08-18T02:31:59.066Z,15.66
2018-08-18T02:32:58.984Z,15.59
2018-08-18T02:33:58.916Z,15.56
2018-08-18T02:34:58.814Z,15.52
2018-08-18T02:35:58.745Z,15.49
2018-08-18T02:36:58.678Z,15.58
2018-08-18T02:37:58.571Z,15.44
2018-08-18T02:38:58.596Z,15.35
2018-08-18T02:39:58.439Z,15.34
2018-08-18T02:40:58.334Z,15.44
2018-08-18T02:41:58.274Z,15.30
2018-08-18T02:42:58.185Z,15.27
2018-08-18T02:43:58.133Z,15.40
2018-08-18T02:44:58.039Z,15.31
2018-08-18T02:45:57.941Z,15.22
2018-08-18T02:46:57.856Z,15.25
2018-08-18T02:47:57.779Z,15.38
2018-08-18T02:48:57.703Z,15.30
2018-08-18T02:49:57.638Z,15.40
2018-08-18T02:52:39.875Z,15.22
2018-08-18T02:55:21.911Z,15.04
2018-08-18T02:58:03.888Z,15.01
2018-08-18T02:59:03.819Z,15.12
2018-08-18T03:00:03.746Z,15.09
2018-08-18T03:02:45.882Z,15.00
2018-08-18T03:03:45.813Z,15.00
2018-08-18T03:04:45.739Z,15.05
2018-08-18T03:07:27.887Z,14.95
2018-08-18T03:10:09.908Z,14.98
2018-08-18T03:11:09.810Z,14.98
2018-08-18T03:12:09.732Z,14.86
2018-08-18T03:13:09.656Z,14.83
2018-08-18T03:14:09.570Z,14.83
2018-08-18T03:15:10.508Z,14.78
2018-08-18T03:16:09.411Z,14.74
2018-08-18T03:17:09.347Z,14.75
2018-08-18T03:18:09.245Z,14.79
2018-08-18T03:19:09.177Z,14.75
2018-08-18T03:20:09.104Z,14.75
2018-08-18T03:21:09.011Z,14.71
2018-08-18T03:22:08.934Z,14.74
2018-08-18T03:23:08.882Z,14.86
2018-08-18T03:24:08.762Z,14.72
2018-08-18T03:25:08.712Z,14.85
2018-08-18T03:26:08.609Z,14.90
2018-08-18T03:27:08.536Z,14.79
2018-08-18T03:28:08.443Z,14.85
2018-08-18T03:29:08.436Z,14.72
2018-08-18T03:30:08.313Z,14.72
2018-08-18T03:32:50.400Z,14.66
2018-08-18T03:33:50.344Z,14.72
2018-08-18T03:34:50.225Z,14.59
2018-08-18T03:35:51.186Z,14.64
2018-08-18T03:36:50.092Z,14.60
2018-08-18T03:37:50.200Z,14.67
2018-08-18T03:38:50.194Z,14.71
2018-08-18T03:39:50.506Z,14.71
2018-08-18T03:40:49.772Z,14.67
2018-08-18T03:41:50.702Z,14.69
2018-08-18T03:42:49.596Z,14.64
2018-08-18T03:43:49.523Z,14.66
2018-08-18T03:44:49.423Z,14.71
2018-08-18T03:45:49.349Z,14.66
2018-08-18T03:46:49.288Z,14.67
2018-08-18T03:47:49.190Z,14.71
2018-08-18T03:48:49.109Z,14.75
2018-08-18T03:49:49.039Z,14.87
2018-08-18T03:50:48.958Z,14.75
2018-08-18T03:51:48.889Z,14.66
2018-08-18T03:52:48.787Z,14.66
2018-08-18T03:53:48.721Z,14.69
2018-08-18T03:54:48.636Z,14.69
2018-08-18T03:55:48.561Z,14.75
2018-08-18T03:56:48.488Z,14.79
2018-08-18T03:57:48.388Z,14.72
2018-08-18T03:58:48.311Z,14.74
2018-08-18T03:59:48.227Z,14.61
2018-08-18T04:00:48.153Z,14.64
2018-08-18T04:01:48.153Z,14.64
2018-08-18T04:02:48.106Z,14.63
2018-08-18T04:03:47.919Z,14.67
2018-08-18T04:04:47.818Z,14.56
2018-08-18T04:05:47.761Z,14.53
2018-08-18T04:06:47.664Z,14.66
2018-08-18T04:07:47.613Z,14.63
2018-08-18T04:08:47.500Z,14.56
2018-08-18T04:09:47.432Z,14.64
2018-08-18T04:10:47.352Z,14.67
2018-08-18T04:11:47.307Z,14.74
2018-08-18T04:12:47.207Z,14.67
2018-08-18T04:15:29.404Z,14.52
2018-08-18T04:16:29.343Z,14.53
2018-08-18T04:17:29.252Z,14.63
2018-08-18T04:18:29.189Z,14.64
2018-08-18T04:19:29.103Z,14.63
2018-08-18T04:20:29.025Z,14.61
2018-08-18T04:21:28.922Z,14.59
2018-08-18T04:22:28.843Z,14.67
2018-08-18T04:23:28.789Z,14.59
2018-08-18T04:24:28.679Z,14.61
2018-08-18T04:25:28.599Z,14.48
2018-08-18T04:28:10.932Z,14.46
2018-08-18T04:30:52.908Z,14.45
2018-08-18T04:31:52.828Z,14.39
2018-08-18T04:32:52.755Z,14.45
2018-08-18T04:33:52.675Z,14.41
2018-08-18T04:34:52.612Z,14.31
2018-08-18T04:35:52.540Z,14.41
2018-08-18T04:36:52.427Z,14.61
2018-08-18T04:37:52.351Z,14.61
2018-08-18T04:38:52.277Z,14.63
2018-08-18T04:39:52.212Z,14.64
2018-08-18T04:40:52.126Z,14.63
2018-08-18T04:41:52.028Z,14.46
2018-08-18T04:42:51.939Z,14.41
2018-08-18T04:45:34.005Z,14.42
2018-08-18T04:46:33.833Z,14.34
2018-08-18T04:47:33.745Z,14.34
2018-08-18T04:50:15.928Z,14.36
2018-08-18T04:51:16.850Z,14.36
2018-08-18T04:52:15.780Z,14.39
2018-08-18T04:53:15.675Z,14.36
2018-08-18T04:54:15.592Z,14.30
2018-08-18T04:56:57.483Z,14.20
2018-08-18T04:57:57.331Z,14.21
2018-08-18T04:58:57.252Z,14.17
2018-08-18T04:59:58.185Z,14.20
2018-08-18T05:00:57.105Z,14.11
2018-08-18T05:03:38.907Z,14.19
2018-08-18T05:04:38.832Z,14.09
2018-08-18T05:05:38.762Z,14.26
2018-08-18T05:08:20.910Z,14.35
2018-08-18T05:11:02.928Z,14.23
2018-08-18T05:12:02.856Z,14.30
2018-08-18T05:13:02.754Z,14.27
2018-08-18T05:14:02.674Z,14.30
2018-08-18T05:15:02.590Z,14.35
2018-08-18T05:16:03.525Z,14.34
2018-08-18T05:17:02.432Z,14.38
2018-08-18T05:18:02.365Z,14.49
2018-08-18T05:19:02.416Z,14.48
2018-08-18T05:20:02.199Z,14.57
2018-08-18T05:21:02.131Z,14.41
2018-08-18T05:22:02.037Z,14.45
2018-08-18T05:23:01.955Z,14.44
2018-08-18T05:24:01.878Z,14.30
2018-08-18T05:25:01.785Z,14.44
2018-08-18T05:26:02.726Z,14.52
2018-08-18T05:27:01.651Z,14.59
2018-08-18T05:28:01.553Z,14.45
2018-08-18T05:29:01.464Z,14.38
2018-08-18T05:30:01.393Z,14.36
2018-08-18T05:31:01.321Z,14.53
2018-08-18T05:32:01.277Z,14.45
2018-08-18T05:33:01.162Z,14.44
2018-08-18T05:35:43.427Z,14.39
2018-08-18T05:36:43.404Z,14.38
2018-08-18T05:37:43.274Z,14.42
2018-08-18T05:40:25.414Z,14.59
2018-08-18T05:41:25.367Z,14.66
2018-08-18T05:42:25.255Z,14.63
2018-08-18T05:43:25.193Z,14.48
2018-08-18T05:44:25.102Z,14.56
2018-08-18T05:45:25.024Z,14.64
2018-08-18T05:46:24.964Z,14.74
2018-08-18T05:47:25.889Z,14.80
2018-08-18T05:48:24.786Z,14.75
2018-08-18T05:51:06.927Z,15.00
2018-08-18T05:52:06.847Z,15.00
2018-08-18T05:53:06.786Z,14.97
2018-08-18T05:54:06.685Z,15.05
2018-08-18T05:55:06.624Z,15.12
2018-08-18T05:56:06.529Z,15.30
2018-08-18T05:57:06.442Z,15.33
2018-08-18T05:58:07.388Z,15.30
2018-08-18T05:59:06.277Z,15.40
2018-08-18T06:00:06.211Z,15.51
2018-08-18T06:01:06.125Z,15.46
2018-08-18T06:02:06.041Z,15.46
2018-08-18T06:03:05.990Z,15.58
2018-08-18T06:04:05.909Z,15.64
2018-08-18T06:05:05.809Z,15.67
2018-08-18T06:07:47.945Z,15.74
2018-08-18T06:08:47.868Z,15.80
2018-08-18T06:09:47.767Z,16.14
2018-08-18T06:10:47.691Z,16.90
2018-08-18T06:11:47.620Z,17.47
2018-08-18T06:12:47.535Z,17.98
2018-08-18T06:13:47.469Z,18.62
2018-08-18T06:14:47.377Z,18.83
2018-08-18T06:15:47.289Z,19.09
2018-08-18T06:16:47.235Z,18.68
2018-08-18T06:17:47.124Z,18.75
2018-08-18T06:18:47.069Z,18.87
2018-08-18T06:19:46.977Z,19.34
2018-08-18T06:20:46.893Z,19.95
2018-08-18T06:21:46.820Z,20.57
2018-08-18T06:22:46.751Z,20.90
2018-08-18T06:23:46.680Z,20.75
2018-08-18T06:26:28.940Z,20.93
2018-08-18T06:27:28.852Z,21.46
2018-08-18T06:28:28.784Z,21.85
2018-08-18T06:29:28.729Z,22.35
2018-08-18T06:30:28.624Z,22.35
2018-08-18T06:31:28.561Z,22.63
2018-08-18T06:32:28.458Z,22.35
2018-08-18T06:33:28.415Z,22.21
2018-08-18T06:34:28.378Z,21.53
2018-08-18T06:35:28.231Z,21.55
2018-08-18T06:36:28.154Z,22.12
2018-08-18T06:39:10.428Z,20.37
2018-08-18T06:40:10.468Z,21.12
2018-08-18T06:41:10.315Z,22.15
2018-08-18T06:42:10.243Z,22.06
2018-08-18T06:43:10.123Z,22.09
2018-08-18T06:44:10.072Z,22.30
2018-08-18T06:45:10.004Z,23.03
2018-08-18T06:46:09.910Z,23.01
2018-08-18T06:47:09.827Z,23.25
2018-08-18T06:49:51.971Z,23.14
2018-08-18T06:50:51.868Z,23.60
2018-08-18T06:51:51.803Z,23.11
2018-08-18T06:52:51.720Z,22.70
2018-08-18T06:53:51.632Z,22.60
2018-08-18T06:54:51.738Z,23.03
2018-08-18T06:55:51.473Z,23.07
2018-08-18T06:56:51.438Z,23.52
2018-08-18T06:57:51.328Z,22.63
2018-08-18T06:58:51.272Z,21.75
2018-08-18T06:59:51.210Z,21.90
2018-08-18T07:00:51.113Z,22.20
2018-08-18T07:01:51.052Z,22.30
2018-08-18T07:02:50.956Z,22.99
2018-08-18T07:03:50.868Z,23.53
2018-08-18T07:04:50.808Z,23.90
2018-08-18T07:05:50.800Z,24.11
2018-08-18T07:06:50.687Z,24.42
2018-08-18T07:07:50.572Z,24.86
2018-08-18T07:08:50.508Z,24.94
2018-08-18T07:09:50.423Z,25.36
2018-08-18T07:10:50.366Z,25.49
2018-08-18T07:11:50.269Z,25.72
2018-08-18T07:12:50.210Z,25.74
2018-08-18T07:13:50.129Z,26.09
2018-08-18T07:14:50.053Z,26.19
2018-08-18T07:15:50.007Z,26.42
2018-08-18T07:16:49.915Z,25.98
2018-08-18T07:17:49.819Z,26.38
2018-08-18T07:18:49.758Z,26.49
2018-08-18T07:19:49.697Z,26.46
2018-08-18T07:20:49.654Z,25.91
2018-08-18T07:21:49.538Z,26.16
2018-08-18T07:22:49.459Z,26.16
2018-08-18T07:23:49.388Z,26.28
2018-08-18T07:24:49.313Z,26.47
2018-08-18T07:25:49.236Z,26.23
2018-08-18T07:26:50.212Z,26.23
2018-08-18T07:27:49.090Z,26.46
2018-08-18T07:28:49.118Z,26.17
2018-08-18T07:29:48.938Z,26.39
2018-08-18T07:30:48.878Z,26.59
2018-08-18T07:31:48.820Z,26.27
2018-08-18T07:34:30.955Z,26.71
2018-08-18T07:37:13.048Z,27.25
2018-08-18T07:38:12.908Z,27.50
2018-08-18T07:39:12.882Z,27.48
2018-08-18T07:40:12.748Z,27.42
2018-08-18T07:41:12.677Z,27.28
2018-08-18T07:42:12.640Z,26.86
2018-08-18T07:43:12.544Z,27.46
2018-08-18T07:45:54.462Z,27.11
2018-08-18T07:46:54.402Z,26.65
2018-08-18T07:47:54.365Z,26.88
2018-08-18T07:48:54.263Z,27.16
2018-08-18T07:49:54.176Z,26.90
2018-08-18T07:50:54.106Z,26.84
2018-08-18T07:51:54.034Z,26.93
2018-08-18T07:52:54.019Z,27.08
2018-08-18T07:53:54.015Z,27.12
2018-08-18T07:54:53.824Z,26.88
2018-08-18T07:55:53.748Z,26.78
2018-08-18T07:56:53.696Z,26.68
2018-08-18T07:57:53.642Z,27.02
2018-08-18T08:00:35.469Z,27.68
2018-08-18T08:01:35.413Z,27.33
2018-08-18T08:02:35.326Z,27.30
2018-08-18T08:03:35.305Z,26.88
2018-08-18T08:04:35.184Z,27.33
2018-08-18T08:05:35.139Z,27.13
2018-08-18T08:06:35.056Z,27.20
2018-08-18T08:07:34.984Z,27.06
2018-08-18T08:08:34.993Z,27.43
2018-08-18T08:11:16.983Z,26.84
2018-08-18T08:12:16.914Z,26.90
2018-08-18T08:13:16.867Z,27.05
2018-08-18T08:14:16.780Z,26.73
2018-08-18T08:15:16.693Z,27.02
2018-08-18T08:16:16.632Z,26.88
2018-08-18T08:17:16.544Z,27.62
2018-08-18T08:18:17.619Z,27.53
2018-08-18T08:19:16.408Z,27.90
2018-08-18T08:20:16.338Z,27.99
2018-08-18T08:21:16.274Z,27.87
2018-08-18T08:23:58.504Z,27.74
2018-08-18T08:24:58.428Z,27.42
2018-08-18T08:25:58.359Z,27.66
2018-08-18T08:26:58.273Z,27.86
2018-08-18T08:27:58.194Z,27.62
2018-08-18T08:28:58.161Z,27.61
2018-08-18T08:29:58.054Z,27.09
2018-08-18T08:30:57.991Z,26.88
2018-08-18T08:31:57.919Z,27.62
2018-08-18T08:32:57.883Z,27.91
2018-08-18T08:33:57.794Z,28.02
2018-08-18T08:34:57.721Z,28.38
2018-08-18T08:35:57.634Z,28.46
2018-08-18T08:36:57.577Z,28.11
2018-08-18T08:37:57.509Z,28.15
2018-08-18T08:38:57.455Z,28.30
2018-08-18T08:39:57.365Z,28.60
2018-08-18T08:40:57.304Z,28.70
2018-08-18T08:41:57.221Z,28.48
2018-08-18T08:42:57.165Z,28.54
2018-08-18T08:43:57.121Z,28.55
2018-08-18T08:46:39.002Z,28.23
2018-08-18T08:49:21.032Z,28.14
2018-08-18T08:50:20.941Z,27.91
2018-08-18T08:51:20.849Z,28.08
2018-08-18T08:54:03.021Z,28.79
2018-08-18T08:55:03.941Z,28.54
2018-08-18T08:56:02.851Z,28.83
2018-08-18T08:57:02.792Z,29.23
2018-08-18T08:58:02.723Z,29.37
2018-08-18T08:59:02.673Z,29.15
2018-08-18T09:00:02.608Z,28.92
2018-08-18T09:01:02.537Z,27.95
2018-08-18T09:02:02.441Z,27.84
2018-08-18T09:03:02.434Z,28.03
2018-08-18T09:04:02.306Z,28.80
2018-08-18T09:05:02.270Z,28.69
2018-08-18T09:06:02.173Z,28.51
2018-08-18T09:07:02.114Z,28.79
2018-08-18T09:08:02.056Z,29.12
2018-08-18T09:09:02.000Z,28.97
2018-08-18T09:10:01.916Z,29.49
2018-08-18T09:11:01.835Z,29.27
2018-08-18T09:12:01.777Z,29.42
2018-08-18T09:14:44.020Z,29.97
2018-08-18T09:15:44.000Z,29.49
2018-08-18T09:16:43.867Z,29.69
2018-08-18T09:17:43.851Z,29.74
2018-08-18T09:18:43.732Z,29.00
2018-08-18T09:21:26.020Z,29.12
2018-08-18T09:22:25.956Z,29.67
2018-08-18T09:23:25.863Z,29.63
2018-08-18T09:24:25.823Z,30.00
2018-08-18T09:25:25.737Z,30.42
2018-08-18T09:26:26.729Z,30.26
2018-08-18T09:27:25.600Z,30.45
2018-08-18T09:28:25.565Z,30.29
2018-08-18T09:29:25.464Z,30.40
2018-08-18T09:30:25.443Z,30.04
2018-08-18T09:31:25.367Z,29.54
2018-08-18T09:32:25.294Z,29.17
2018-08-18T09:33:25.198Z,29.14
2018-08-18T09:34:25.146Z,29.33
2018-08-18T09:35:25.080Z,29.73
2018-08-18T09:36:25.020Z,29.88
2018-08-18T09:37:24.973Z,29.42
2018-08-18T09:38:24.880Z,29.49
2018-08-18T09:39:24.807Z,29.02
2018-08-18T09:40:24.748Z,29.08
2018-08-18T09:41:24.673Z,28.64
2018-08-18T09:42:24.647Z,28.91
2018-08-18T09:43:24.572Z,29.27
2018-08-18T09:44:24.482Z,29.23
2018-08-18T09:45:24.459Z,29.11
2018-08-18T09:46:24.387Z,29.70
2018-08-18T09:47:24.295Z,30.28
2018-08-18T09:48:24.234Z,30.56
2018-08-18T09:49:24.155Z,30.42
2018-08-18T09:50:24.090Z,30.03
2018-08-18T09:51:24.046Z,30.21
2018-08-18T09:52:23.999Z,30.49
2018-08-18T09:53:23.896Z,30.13
2018-08-18T09:54:23.830Z,29.79
2018-08-18T09:55:23.757Z,29.48
2018-08-18T09:58:06.078Z,30.28
2018-08-18T10:00:48.009Z,29.18
2018-08-18T10:03:30.048Z,29.47
2018-08-18T10:04:29.971Z,30.00
2018-08-18T10:05:29.881Z,30.13
2018-08-18T10:06:29.875Z,30.46
2018-08-18T10:07:29.772Z,29.92
2018-08-18T10:08:29.727Z,29.63
2018-08-18T10:09:29.623Z,29.14
2018-08-18T10:10:29.573Z,28.97
2018-08-18T10:11:29.509Z,29.29
2018-08-18T10:12:29.433Z,29.85
2018-08-18T10:13:29.400Z,30.37
2018-08-18T10:14:29.323Z,30.51
2018-08-18T10:15:29.282Z,30.13
2018-08-18T10:16:29.176Z,30.13
2018-08-18T10:17:29.111Z,29.33
2018-08-18T10:18:29.085Z,29.20
2018-08-18T10:19:28.988Z,29.25
2018-08-18T10:22:11.021Z,28.94
2018-08-18T10:23:10.967Z,29.51
2018-08-18T10:24:10.932Z,29.25
2018-08-18T10:26:53.029Z,30.32
2018-08-18T10:27:52.985Z,30.40
2018-08-18T10:28:52.889Z,29.36
2018-08-18T10:29:53.862Z,27.98
2018-08-18T10:30:52.764Z,28.83
2018-08-18T10:31:52.703Z,28.94
2018-08-18T10:32:52.635Z,29.20
2018-08-18T10:33:52.598Z,29.29
2018-08-18T10:34:52.527Z,29.91
2018-08-18T10:37:34.533Z,29.57
2018-08-18T10:38:34.481Z,29.86
2018-08-18T10:39:34.434Z,30.03
2018-08-18T10:40:34.347Z,30.03
2018-08-18T10:41:34.285Z,30.25
2018-08-18T10:42:34.215Z,29.42
2018-08-18T10:43:34.132Z,29.25
2018-08-18T10:44:34.103Z,29.54
2018-08-18T10:45:34.028Z,29.18
2018-08-18T10:48:16.036Z,27.12
2018-08-18T10:50:58.057Z,28.85
2018-08-18T10:53:40.047Z,27.72
2018-08-18T10:54:39.983Z,28.36
2018-08-18T10:55:39.922Z,27.93
2018-08-18T10:56:39.839Z,27.71
2018-08-18T10:57:39.769Z,28.23
2018-08-18T10:58:39.816Z,27.96
2018-08-18T10:59:39.646Z,28.25
2018-08-18T11:00:39.586Z,29.21
2018-08-18T11:01:39.510Z,29.55
2018-08-18T11:02:39.456Z,29.58
2018-08-18T11:03:39.394Z,29.48
2018-08-18T11:04:39.308Z,28.74
2018-08-18T11:05:39.253Z,27.98
2018-08-18T11:06:39.187Z,28.18
2018-08-18T11:07:39.110Z,27.62
2018-08-18T11:08:39.054Z,27.43
2018-08-18T11:09:38.988Z,27.03
2018-08-18T11:10:39.698Z,27.72
2018-08-18T11:11:38.837Z,28.45
2018-08-18T11:12:38.782Z,27.71
2018-08-18T11:13:38.717Z,28.03
2018-08-18T11:14:38.644Z,27.38
2018-08-18T11:15:38.607Z,26.83
2018-08-18T11:16:38.511Z,27.53
2018-08-18T11:17:38.442Z,27.15
2018-08-18T11:18:38.388Z,26.79
2018-08-18T11:19:38.315Z,27.93
2018-08-18T11:20:38.291Z,27.68
2018-08-18T11:21:38.261Z,27.28
2018-08-18T11:22:38.125Z,27.28
2018-08-18T11:23:38.055Z,26.65
2018-08-18T11:24:37.977Z,26.69
2018-08-18T11:25:37.895Z,27.25
2018-08-18T11:26:37.861Z,27.96
2018-08-18T11:27:37.766Z,28.23
2018-08-18T11:30:20.063Z,28.73
2018-08-18T11:31:20.017Z,28.42
2018-08-18T11:32:19.923Z,28.95
2018-08-18T11:33:19.847Z,28.97
2018-08-18T11:34:19.803Z,29.67
2018-08-18T11:37:02.082Z,30.23
2018-08-18T11:38:02.004Z,30.21
2018-08-18T11:39:01.918Z,29.88
2018-08-18T11:40:01.872Z,30.22
2018-08-18T11:41:01.810Z,29.95
2018-08-18T11:42:02.747Z,29.39
2018-08-18T11:43:01.664Z,29.36
2018-08-18T11:44:01.678Z,28.85
2018-08-18T11:45:01.533Z,28.50
2018-08-18T11:47:43.570Z,29.12
2018-08-18T11:50:25.559Z,28.39
2018-08-18T11:51:26.623Z,28.67
2018-08-18T11:52:25.450Z,28.87
2018-08-18T11:53:25.468Z,28.52
2018-08-18T11:54:25.316Z,28.64
2018-08-18T11:55:25.285Z,28.54
2018-08-18T11:56:25.197Z,28.20
2018-08-18T11:57:25.237Z,28.06
2018-08-18T11:58:25.034Z,27.62
2018-08-18T11:59:25.072Z,28.20
2018-08-18T12:00:24.924Z,28.50
2018-08-18T12:01:24.911Z,28.64
2018-08-18T12:02:24.796Z,29.05
2018-08-18T12:03:24.828Z,28.77
2018-08-18T12:04:24.652Z,28.74
2018-08-18T12:05:24.635Z,28.17
2018-08-18T12:06:24.509Z,28.42
2018-08-18T12:18:47.266Z,27.11
2018-08-18T12:19:47.145Z,26.97
2018-08-18T12:20:47.148Z,27.02
2018-08-18T12:21:46.995Z,26.93
2018-08-18T12:22:46.963Z,27.01
2018-08-18T12:23:46.883Z,26.91
2018-08-18T12:24:46.873Z,26.69
2018-08-18T12:25:46.741Z,26.66
2018-08-18T12:26:46.680Z,26.47
2018-08-18T12:27:46.576Z,26.68
2018-08-18T12:28:46.939Z,26.54
2018-08-18T12:37:28.567Z,26.06
2018-08-18T12:38:28.426Z,26.01
2018-08-18T12:39:28.487Z,26.13
2018-08-18T12:40:28.272Z,26.34
2018-08-18T12:41:28.267Z,26.59
2018-08-18T12:42:28.188Z,26.47
2018-08-18T12:43:28.171Z,26.46
2018-08-18T12:44:27.993Z,26.39
2018-08-18T12:45:27.971Z,26.20
2018-08-18T12:46:27.844Z,26.20
2018-08-18T12:47:27.883Z,26.16
2018-08-18T12:48:27.687Z,26.16
2018-08-18T12:49:27.766Z,26.19
2018-08-18T12:50:27.542Z,25.91
2018-08-18T12:51:27.485Z,26.12
2018-08-18T12:52:27.408Z,26.17
2018-08-18T12:53:27.503Z,26.39
2018-08-18T12:54:27.239Z,26.54
2018-08-18T12:55:27.267Z,26.53
2018-08-18T12:56:27.093Z,26.59
2018-08-18T12:57:27.118Z,26.65
2018-08-18T12:58:27.101Z,26.66
2018-08-18T12:59:26.936Z,26.59
2018-08-18T13:00:26.817Z,26.64
2018-08-18T13:01:26.857Z,26.71
2018-08-18T13:02:26.640Z,26.75
2018-08-18T13:03:26.655Z,26.73
2018-08-18T13:04:26.597Z,26.61
2018-08-18T13:05:26.510Z,26.54
2018-08-18T13:06:26.345Z,26.47
2018-08-18T13:07:26.377Z,26.27
2018-08-18T13:08:26.196Z,26.41
2018-08-18T13:09:26.176Z,26.51
2018-08-18T13:10:26.091Z,26.65
2018-08-18T13:11:26.150Z,26.71
2018-08-18T13:12:25.907Z,26.78
2018-08-18T13:13:25.897Z,26.90
2018-08-18T13:14:25.842Z,26.88
2018-08-18T13:15:25.863Z,26.83
2018-08-18T13:16:25.629Z,26.72
2018-08-18T13:17:25.651Z,26.42
2018-08-18T13:18:25.484Z,26.34
2018-08-18T13:19:25.437Z,26.24
2018-08-18T13:20:25.317Z,26.06
2018-08-18T13:21:25.347Z,26.04
2018-08-18T13:22:25.185Z,25.93
2018-08-18T13:23:25.153Z,26.03
2018-08-18T13:24:25.051Z,26.16
2018-08-18T13:25:25.064Z,26.17
2018-08-18T13:26:24.904Z,26.20
2018-08-18T13:27:24.870Z,26.19
2018-08-18T13:28:24.713Z,26.34
2018-08-18T13:29:24.679Z,26.42
2018-08-18T13:30:24.569Z,26.50
2018-08-18T13:31:24.613Z,26.54
2018-08-18T13:32:24.439Z,26.49
2018-08-18T13:33:24.426Z,26.39
2018-08-18T13:34:24.290Z,26.31
2018-08-18T13:35:24.303Z,26.42
2018-08-18T13:36:24.120Z,26.41
2018-08-18T13:37:24.115Z,26.28
2018-08-18T13:38:23.998Z,26.29
2018-08-18T13:39:23.932Z,26.28
2018-08-18T13:40:23.884Z,26.29
2018-08-18T13:41:23.833Z,26.50
2018-08-18T13:42:23.676Z,26.38
2018-08-18T13:43:23.678Z,26.41
2018-08-18T13:44:23.552Z,26.47
2018-08-18T13:45:23.561Z,26.66
2018-08-18T13:46:29.439Z,26.66
2018-08-18T13:47:23.320Z,26.68
2018-08-18T13:48:23.230Z,26.65
2018-08-18T13:49:23.165Z,26.42
2018-08-18T13:50:23.087Z,26.44
2018-08-18T13:51:22.999Z,26.47
2018-08-18T13:52:22.948Z,26.42
2018-08-18T13:53:22.855Z,26.46
2018-08-18T13:54:22.777Z,26.53
2018-08-18T13:55:22.745Z,26.31
2018-08-18T13:56:22.623Z,26.49
2018-08-18T13:57:22.582Z,26.54
2018-08-18T13:58:22.483Z,26.68
2018-08-18T13:59:22.418Z,26.68
2018-08-18T14:00:22.360Z,26.68
2018-08-18T14:01:22.265Z,26.56
2018-08-18T14:02:22.201Z,26.41
2018-08-18T14:03:22.109Z,26.46
2018-08-18T14:04:22.065Z,26.44
2018-08-18T14:05:23.011Z,26.41
2018-08-18T14:06:21.921Z,26.46
2018-08-18T14:09:04.103Z,26.41
2018-08-18T14:10:04.078Z,26.27
2018-08-18T14:11:04.038Z,26.12
2018-08-18T14:12:03.904Z,26.01
2018-08-18T14:13:03.816Z,25.94
2018-08-18T14:14:05.804Z,26.09
2018-08-18T14:15:03.673Z,26.19
2018-08-18T14:16:03.677Z,26.21
2018-08-18T14:17:03.533Z,26.16
2018-08-18T14:18:03.469Z,26.35
2018-08-18T14:19:03.399Z,26.13
2018-08-18T14:20:03.356Z,26.00
2018-08-18T14:21:03.215Z,25.96
2018-08-18T14:22:03.170Z,25.98
2018-08-18T14:23:03.113Z,26.11
2018-08-18T14:24:03.003Z,26.24
2018-08-18T14:25:02.932Z,26.24
2018-08-18T14:26:02.844Z,26.38
2018-08-18T14:27:02.792Z,26.31
2018-08-18T14:28:02.698Z,26.24
2018-08-18T14:29:02.652Z,26.34
2018-08-18T14:30:02.591Z,26.21
2018-08-18T14:31:02.560Z,25.97
2018-08-18T14:32:02.398Z,26.00
2018-08-18T14:33:02.331Z,26.13
2018-08-18T14:34:02.313Z,26.20
2018-08-18T14:35:02.174Z,26.20
2018-08-18T14:36:02.122Z,26.27
2018-08-18T14:37:02.041Z,26.29
2018-08-18T14:38:01.961Z,26.46
2018-08-18T14:39:01.882Z,26.28
2018-08-18T14:40:01.829Z,26.38
2018-08-18T14:41:01.821Z,26.50
2018-08-18T14:42:01.667Z,26.53
2018-08-18T14:43:01.588Z,26.28
2018-08-18T14:44:01.538Z,26.19
2018-08-18T14:45:01.483Z,26.11
2018-08-18T14:46:01.356Z,25.90
2018-08-18T14:47:01.295Z,26.01
2018-08-18T14:48:01.206Z,26.01
2018-08-18T14:49:01.124Z,26.19
2018-08-18T14:50:01.063Z,26.17
2018-08-18T14:51:00.972Z,26.11
2018-08-18T14:52:01.940Z,26.08
2018-08-18T14:53:00.842Z,26.06
2018-08-18T14:54:00.813Z,26.09
2018-08-18T14:55:00.701Z,26.01
2018-08-18T14:56:00.622Z,26.09